PWSweather.com
Personal Weather Stations
Station Observations
BREAKEY01
Lévis, Breakeyville, QC G0S 1E1

LévisBreakeyville, QC G0S 1E1

Lat: 46.681, Lon: -71.224

Elevation: 328

Station Type: Davis Vantage Pro2

http://www.meteobreakey.webou.net/topic/index.php

Latest ConditionsUpdated 3:37:04 PM EDT Saturday, Oct 25, 2014
Currently Today's Max Today's Min Today's Average
Temperature 50.7°F10.4°C 53.2°F11.8°C 32.2°F0.1°C 39.8°F4.3°C
Dew Point 43.2°F6.2°C 44.6°F7.0°C 29.8°F-1.2°C 36.3°F2.4°C
Winds 2.0 mph NNE3.2 kmh NNE 8.1 mph W13.0 kmh W - 2.2 mph 3.5 kmh
Wind Gusts 2.9 mph4.7 kmh 12.1 mph19.5 kmh - -
Humidity 75% 94% 70% 88%
Pressure 29.54 in1000.3 mb 29.78 in1008.5 mb 29.54 in1000.3 mb -
Hour Temp Dew Point Humidity Winds Wind Gusts Pressure Precip Precip Rate Daily Precip Total
03:37 PM 50.7°F10.4°C 43.2°F6.2°C 75% 2.0 mph NNE3.2 kmh NNE 2.9 mph4.7 kmh 29.54 in1000.3 mb 0.00 in0.0 mm 0.00 in/hr0.0 mm/hr 0.00 in0.0 mm
03:32 PM 51.1°F10.6°C 43.5°F6.4°C 75% 2.9 mph N4.7 kmh N 2.9 mph4.7 kmh 29.55 in1000.7 mb 0.00 in0.0 mm 0.00 in/hr0.0 mm/hr 0.00 in0.0 mm
03:27 PM 51.4°F10.8°C 43.5°F6.4°C 74% 4.0 mph N6.4 kmh N 2.9 mph4.7 kmh 29.55 in1000.7 mb 0.00 in0.0 mm 0.00 in/hr0.0 mm/hr 0.00 in0.0 mm
03:22 PM 52.0°F11.1°C 43.9°F6.6°C 74% 2.9 mph N4.7 kmh N 6.0 mph9.7 kmh 29.55 in1000.7 mb 0.00 in0.0 mm 0.00 in/hr0.0 mm/hr 0.00 in0.0 mm
03:17 PM 52.3°F11.3°C 43.9°F6.6°C 73% 2.0 mph 3.2 kmh 4.9 mph7.9 kmh 29.55 in1000.7 mb 0.00 in0.0 mm 0.00 in/hr0.0 mm/hr 0.00 in0.0 mm
03:12 PM 52.7°F11.5°C 43.9°F6.6°C 72% 0.9 mph N1.4 kmh N -- 29.55 in1000.7 mb 0.00 in0.0 mm 0.00 in/hr0.0 mm/hr 0.00 in0.0 mm
03:07 PM 52.9°F11.6°C 44.1°F6.7°C 72% 0.9 mph N1.4 kmh N 2.9 mph4.7 kmh 29.55 in1000.7 mb 0.00 in0.0 mm 0.00 in/hr0.0 mm/hr 0.00 in0.0 mm
03:02 PM 52.9°F11.6°C 44.1°F6.7°C 72% 0.9 mph N1.4 kmh N -- 29.55 in1000.7 mb 0.00 in0.0 mm 0.00 in/hr0.0 mm/hr 0.00 in0.0 mm
02:57 PM 53.1°F11.7°C 44.2°F6.8°C 72% 0.9 mph N1.4 kmh N 0.9 mph1.4 kmh 29.55 in1000.7 mb 0.00 in0.0 mm 0.00 in/hr0.0 mm/hr 0.00 in0.0 mm
02:52 PM 53.1°F11.7°C 43.9°F6.6°C 71% Calm Calm -- 29.55 in1000.7 mb 0.00 in0.0 mm 0.00 in/hr0.0 mm/hr 0.00 in0.0 mm
02:47 PM 53.2°F11.8°C 43.7°F6.5°C 70% Calm Calm -- 29.55 in1000.7 mb 0.00 in0.0 mm 0.00 in/hr0.0 mm/hr 0.00 in0.0 mm
02:42 PM 53.1°F11.7°C 43.5°F6.4°C 70% Calm Calm -- 29.55 in1000.7 mb 0.00 in0.0 mm 0.00 in/hr0.0 mm/hr 0.00 in0.0 mm
02:37 PM 53.1°F11.7°C 44.2°F6.8°C 72% Calm Calm -- 29.55 in1000.7 mb 0.00 in0.0 mm 0.00 in/hr0.0 mm/hr 0.00 in0.0 mm
02:32 PM 52.7°F11.5°C 44.2°F6.8°C 73% Calm Calm -- 29.55 in1000.7 mb 0.00 in0.0 mm 0.00 in/hr0.0 mm/hr 0.00 in0.0 mm
02:27 PM 52.3°F11.3°C 44.2°F6.8°C 74% 0.9 mph N1.4 kmh N -- 29.55 in1000.7 mb 0.00 in0.0 mm 0.00 in/hr0.0 mm/hr 0.00 in0.0 mm
02:22 PM 52.0°F11.1°C 43.9°F6.6°C 74% 0.9 mph N1.4 kmh N -- 29.56 in1001.0 mb 0.00 in0.0 mm 0.00 in/hr0.0 mm/hr 0.00 in0.0 mm
02:17 PM 51.6°F10.9°C 43.9°F6.6°C 75% 0.9 mph NNW1.4 kmh NNW 2.0 mph3.2 kmh 29.56 in1001.0 mb 0.00 in0.0 mm 0.00 in/hr0.0 mm/hr 0.00 in0.0 mm
02:12 PM 51.6°F10.9°C 43.5°F6.4°C 74% Calm Calm -- 29.56 in1001.0 mb 0.00 in0.0 mm 0.00 in/hr0.0 mm/hr 0.00 in0.0 mm
02:07 PM 51.4°F10.8°C 43.2°F6.2°C 73% Calm Calm 0.9 mph1.4 kmh 29.56 in1001.0 mb 0.00 in0.0 mm 0.00 in/hr0.0 mm/hr 0.00 in0.0 mm
02:02 PM 51.4°F10.8°C 43.2°F6.2°C 73% 0.9 mph NNE1.4 kmh NNE -- 29.57 in1001.4 mb 0.00 in0.0 mm 0.00 in/hr0.0 mm/hr 0.00 in0.0 mm
01:57 PM 51.3°F10.7°C 43.5°F6.4°C 75% Calm Calm -- 29.56 in1001.0 mb 0.00 in0.0 mm 0.00 in/hr0.0 mm/hr 0.00 in0.0 mm
01:52 PM 51.4°F10.8°C 43.5°F6.4°C 74% Calm Calm 2.9 mph4.7 kmh 29.57 in1001.4 mb 0.00 in0.0 mm 0.00 in/hr0.0 mm/hr 0.00 in0.0 mm
01:47 PM 51.4°F10.8°C 43.7°F6.5°C 75% 0.9 mph NNE1.4 kmh NNE -- 29.57 in1001.4 mb 0.00 in0.0 mm 0.00 in/hr0.0 mm/hr 0.00 in0.0 mm
01:42 PM 51.4°F10.8°C 43.7°F6.5°C 75% 0.9 mph ESE1.4 kmh ESE -- 29.57 in1001.4 mb 0.00 in0.0 mm 0.00 in/hr0.0 mm/hr 0.00 in0.0 mm
01:37 PM 51.3°F10.7°C 44.6°F7.0°C 78% 0.9 mph SE1.4 kmh SE 2.0 mph3.2 kmh 29.58 in1001.7 mb 0.00 in0.0 mm 0.00 in/hr0.0 mm/hr 0.00 in0.0 mm
01:32 PM 50.4°F10.2°C 44.1°F6.7°C 79% 0.9 mph SW1.4 kmh SW 0.9 mph1.4 kmh 29.59 in1002.0 mb 0.00 in0.0 mm 0.00 in/hr0.0 mm/hr 0.00 in0.0 mm
01:27 PM 50.0°F10.0°C 43.3°F6.3°C 78% Calm Calm -- 29.59 in1002.0 mb 0.00 in0.0 mm 0.00 in/hr0.0 mm/hr 0.00 in0.0 mm
01:22 PM 50.0°F10.0°C 43.2°F6.2°C 77% Calm Calm -- 29.59 in1002.0 mb 0.00 in0.0 mm 0.00 in/hr0.0 mm/hr 0.00 in0.0 mm
01:17 PM 50.2°F10.1°C 43.5°F6.4°C 78% Calm Calm -- 29.59 in1002.0 mb 0.00 in0.0 mm 0.00 in/hr0.0 mm/hr 0.00 in0.0 mm
01:12 PM 49.5°F9.7°C 43.9°F6.6°C 81% 0.9 mph WSW1.4 kmh WSW -- 29.60 in1002.4 mb 0.00 in0.0 mm 0.00 in/hr0.0 mm/hr 0.00 in0.0 mm
01:07 PM 48.7°F9.3°C 43.2°F6.2°C 81% 2.0 mph WSW3.2 kmh WSW 0.9 mph1.4 kmh 29.60 in1002.4 mb 0.00 in0.0 mm 0.00 in/hr0.0 mm/hr 0.00 in0.0 mm
01:02 PM 48.6°F9.2°C 43.0°F6.1°C 81% 2.9 mph SSW4.7 kmh SSW -- 29.60 in1002.4 mb 0.00 in0.0 mm 0.00 in/hr0.0 mm/hr 0.00 in0.0 mm
12:57 PM 48.0°F8.9°C 43.3°F6.3°C 84% 2.0 mph SW3.2 kmh SW -- 29.61 in1002.7 mb 0.00 in0.0 mm 0.00 in/hr0.0 mm/hr 0.00 in0.0 mm
12:52 PM 47.1°F8.4°C 43.2°F6.2°C 86% 2.0 mph SW3.2 kmh SW 2.9 mph4.7 kmh 29.61 in1002.7 mb 0.00 in0.0 mm 0.00 in/hr0.0 mm/hr 0.00 in0.0 mm
12:47 PM 46.6°F8.1°C 43.2°F6.2°C 88% 0.9 mph SSW1.4 kmh SSW 2.0 mph3.2 kmh 29.61 in1002.7 mb 0.00 in0.0 mm 0.00 in/hr0.0 mm/hr 0.00 in0.0 mm
12:42 PM 45.5°F7.5°C 42.8°F6.0°C 90% 0.9 mph SW1.4 kmh SW 0.9 mph1.4 kmh 29.61 in1002.7 mb 0.00 in0.0 mm 0.00 in/hr0.0 mm/hr 0.00 in0.0 mm
12:37 PM 44.4°F6.9°C 41.9°F5.5°C 91% 2.0 mph WNW3.2 kmh WNW 0.9 mph1.4 kmh 29.62 in1003.0 mb 0.00 in0.0 mm 0.00 in/hr0.0 mm/hr 0.00 in0.0 mm
12:32 PM 43.9°F6.6°C 41.7°F5.4°C 92% 2.9 mph WSW4.7 kmh WSW 2.9 mph4.7 kmh 29.62 in1003.0 mb 0.00 in0.0 mm 0.00 in/hr0.0 mm/hr 0.00 in0.0 mm
12:27 PM 43.5°F6.4°C 41.0°F5.0°C 91% 4.0 mph W6.4 kmh W 6.0 mph9.7 kmh 29.64 in1003.7 mb 0.00 in0.0 mm 0.00 in/hr0.0 mm/hr 0.00 in0.0 mm
12:22 PM 43.3°F6.3°C 41.2°F5.1°C 92% 4.0 mph SW6.4 kmh SW 4.9 mph7.9 kmh 29.64 in1003.7 mb 0.00 in0.0 mm 0.00 in/hr0.0 mm/hr 0.00 in0.0 mm
12:17 PM 43.2°F6.2°C 41.4°F5.2°C 93% 4.0 mph WSW6.4 kmh WSW 6.0 mph9.7 kmh 29.64 in1003.7 mb 0.00 in0.0 mm 0.00 in/hr0.0 mm/hr 0.00 in0.0 mm
12:12 PM 43.0°F6.1°C 41.2°F5.1°C 93% 4.0 mph W6.4 kmh W 2.9 mph4.7 kmh 29.64 in1003.7 mb 0.00 in0.0 mm 0.00 in/hr0.0 mm/hr 0.00 in0.0 mm
12:07 PM 42.6°F5.9°C 40.8°F4.9°C 93% 4.9 mph WSW7.9 kmh WSW -- 29.64 in1003.7 mb 0.00 in0.0 mm 0.00 in/hr0.0 mm/hr 0.00 in0.0 mm
12:02 PM 42.4°F5.8°C 40.6°F4.8°C 93% 4.0 mph SW6.4 kmh SW 6.0 mph9.7 kmh 29.64 in1003.7 mb 0.00 in0.0 mm 0.00 in/hr0.0 mm/hr 0.00 in0.0 mm
11:57 AM 42.4°F5.8°C 40.6°F4.8°C 93% 4.9 mph WSW7.9 kmh WSW 8.9 mph14.3 kmh 29.64 in1003.7 mb 0.00 in0.0 mm 0.00 in/hr0.0 mm/hr 0.00 in0.0 mm
11:52 AM 42.3°F5.7°C 40.5°F4.7°C 93% 4.9 mph WSW7.9 kmh WSW 2.9 mph4.7 kmh 29.65 in1004.1 mb 0.00 in0.0 mm 0.00 in/hr0.0 mm/hr 0.00 in0.0 mm
11:47 AM 42.3°F5.7°C 40.5°F4.7°C 93% 2.9 mph W4.7 kmh W 4.0 mph6.4 kmh 29.65 in1004.1 mb 0.00 in0.0 mm 0.00 in/hr0.0 mm/hr 0.00 in0.0 mm
11:42 AM 42.1°F5.6°C 40.3°F4.6°C 93% 4.0 mph WSW6.4 kmh WSW -- 29.66 in1004.4 mb 0.00 in0.0 mm 0.00 in/hr0.0 mm/hr 0.00 in0.0 mm
11:37 AM 42.1°F5.6°C 40.3°F4.6°C 93% 4.9 mph W7.9 kmh W 2.9 mph4.7 kmh 29.66 in1004.4 mb 0.00 in0.0 mm 0.00 in/hr0.0 mm/hr 0.00 in0.0 mm
11:32 AM 41.7°F5.4°C 39.9°F4.4°C 93% 4.0 mph SW6.4 kmh SW 4.0 mph6.4 kmh 29.65 in1004.1 mb 0.00 in0.0 mm 0.00 in/hr0.0 mm/hr 0.00 in0.0 mm
11:27 AM 41.5°F5.3°C 39.7°F4.3°C 93% 4.9 mph WNW7.9 kmh WNW 4.0 mph6.4 kmh 29.66 in1004.4 mb 0.00 in0.0 mm 0.00 in/hr0.0 mm/hr 0.00 in0.0 mm
11:22 AM 41.5°F5.3°C 39.7°F4.3°C 93% 6.0 mph WSW9.7 kmh WSW 8.1 mph13.0 kmh 29.66 in1004.4 mb 0.00 in0.0 mm 0.00 in/hr0.0 mm/hr 0.00 in0.0 mm
11:17 AM 41.5°F5.3°C 39.7°F4.3°C 93% 6.9 mph WSW11.1 kmh WSW 4.0 mph6.4 kmh 29.66 in1004.4 mb 0.00 in0.0 mm 0.00 in/hr0.0 mm/hr 0.00 in0.0 mm
11:12 AM 41.4°F5.2°C 39.6°F4.2°C 93% 6.9 mph W11.1 kmh W 8.1 mph13.0 kmh 29.66 in1004.4 mb 0.00 in0.0 mm 0.00 in/hr0.0 mm/hr 0.00 in0.0 mm
11:07 AM 41.4°F5.2°C 39.6°F4.2°C 93% 6.9 mph WSW11.1 kmh WSW 4.9 mph7.9 kmh 29.66 in1004.4 mb 0.00 in0.0 mm 0.00 in/hr0.0 mm/hr 0.00 in0.0 mm
11:02 AM 41.4°F5.2°C 39.6°F4.2°C 93% 8.1 mph W13.0 kmh W 6.9 mph11.1 kmh 29.66 in1004.4 mb 0.00 in0.0 mm 0.00 in/hr0.0 mm/hr 0.00 in0.0 mm
10:57 AM 41.4°F5.2°C 39.6°F4.2°C 93% 6.9 mph WSW11.1 kmh WSW 12.1 mph19.5 kmh 29.66 in1004.4 mb 0.00 in0.0 mm 0.00 in/hr0.0 mm/hr 0.00 in0.0 mm
10:52 AM 41.4°F5.2°C 39.6°F4.2°C 93% 6.9 mph WSW11.1 kmh WSW 6.9 mph11.1 kmh 29.67 in1004.7 mb 0.00 in0.0 mm 0.00 in/hr0.0 mm/hr 0.00 in0.0 mm
10:47 AM 41.4°F5.2°C 39.6°F4.2°C 93% 6.0 mph WSW9.7 kmh WSW 4.0 mph6.4 kmh 29.67 in1004.7 mb 0.00 in0.0 mm 0.00 in/hr0.0 mm/hr 0.00 in0.0 mm
10:42 AM 41.2°F5.1°C 39.4°F4.1°C 93% 6.0 mph SW9.7 kmh SW 4.9 mph7.9 kmh 29.67 in1004.7 mb 0.00 in0.0 mm 0.00 in/hr0.0 mm/hr 0.00 in0.0 mm
10:37 AM 41.2°F5.1°C 39.4°F4.1°C 93% 4.9 mph SW7.9 kmh SW 6.9 mph11.1 kmh 29.67 in1004.7 mb 0.00 in0.0 mm 0.00 in/hr0.0 mm/hr 0.00 in0.0 mm
10:32 AM 41.0°F5.0°C 39.2°F4.0°C 93% 6.0 mph WSW9.7 kmh WSW 4.9 mph7.9 kmh 29.67 in1004.7 mb 0.00 in0.0 mm 0.00 in/hr0.0 mm/hr 0.00 in0.0 mm
10:27 AM 40.8°F4.9°C 39.0°F3.9°C 93% 6.0 mph WSW9.7 kmh WSW 6.9 mph11.1 kmh 29.67 in1004.7 mb 0.00 in0.0 mm 0.00 in/hr0.0 mm/hr 0.00 in0.0 mm
10:22 AM 40.6°F4.8°C 38.8°F3.8°C 93% 6.0 mph SW9.7 kmh SW 6.0 mph9.7 kmh 29.67 in1004.7 mb 0.00 in0.0 mm 0.00 in/hr0.0 mm/hr 0.00 in0.0 mm
10:17 AM 40.5°F4.7°C 38.7°F3.7°C 93% 4.9 mph SW7.9 kmh SW 4.9 mph7.9 kmh 29.68 in1005.1 mb 0.00 in0.0 mm 0.00 in/hr0.0 mm/hr 0.00 in0.0 mm
10:12 AM 40.3°F4.6°C 38.5°F3.6°C 93% 4.0 mph SW6.4 kmh SW 2.0 mph3.2 kmh 29.68 in1005.1 mb 0.00 in0.0 mm 0.00 in/hr0.0 mm/hr 0.00 in0.0 mm
10:07 AM 39.9°F4.4°C 38.1°F3.4°C 93% 4.0 mph SW6.4 kmh SW 4.0 mph6.4 kmh 29.68 in1005.1 mb 0.00 in0.0 mm 0.00 in/hr0.0 mm/hr 0.00 in0.0 mm
10:02 AM 39.7°F4.3°C 37.6°F3.1°C 92% 4.0 mph SW6.4 kmh SW 2.9 mph4.7 kmh 29.68 in1005.1 mb 0.00 in0.0 mm 0.00 in/hr0.0 mm/hr 0.00 in0.0 mm
09:57 AM 39.7°F4.3°C 37.6°F3.1°C 92% 4.9 mph SW7.9 kmh SW 2.0 mph3.2 kmh 29.68 in1005.1 mb 0.00 in0.0 mm 0.00 in/hr0.0 mm/hr 0.00 in0.0 mm
09:52 AM 39.6°F4.2°C 37.2°F2.9°C 91% 6.0 mph S9.7 kmh S 4.9 mph7.9 kmh 29.68 in1005.1 mb 0.00 in0.0 mm 0.00 in/hr0.0 mm/hr 0.00 in0.0 mm
09:47 AM 39.9°F4.4°C 36.9°F2.7°C 89% 6.0 mph SW9.7 kmh SW 4.9 mph7.9 kmh 29.68 in1005.1 mb 0.00 in0.0 mm 0.00 in/hr0.0 mm/hr 0.00 in0.0 mm
09:42 AM 40.3°F4.6°C 37.6°F3.1°C 90% 4.9 mph WSW7.9 kmh WSW 6.9 mph11.1 kmh 29.68 in1005.1 mb 0.00 in0.0 mm 0.00 in/hr0.0 mm/hr 0.00 in0.0 mm
09:37 AM 40.1°F4.5°C 37.4°F3.0°C 90% 4.0 mph SW6.4 kmh SW 4.0 mph6.4 kmh 29.69 in1005.4 mb 0.00 in0.0 mm 0.00 in/hr0.0 mm/hr 0.00 in0.0 mm
09:32 AM 39.6°F4.2°C 36.9°F2.7°C 90% 2.9 mph WSW4.7 kmh WSW 2.9 mph4.7 kmh 29.68 in1005.1 mb 0.00 in0.0 mm 0.00 in/hr0.0 mm/hr 0.00 in0.0 mm
09:27 AM 39.4°F4.1°C 36.5°F2.5°C 89% 0.9 mph WSW1.4 kmh WSW 2.9 mph4.7 kmh 29.68 in1005.1 mb 0.00 in0.0 mm 0.00 in/hr0.0 mm/hr 0.00 in0.0 mm
09:22 AM 39.2°F4.0°C 36.3°F2.4°C 89% Calm Calm 0.9 mph1.4 kmh 29.68 in1005.1 mb 0.00 in0.0 mm 0.00 in/hr0.0 mm/hr 0.00 in0.0 mm
09:17 AM 39.2°F4.0°C 36.3°F2.4°C 89% 0.9 mph WSW1.4 kmh WSW 0.9 mph1.4 kmh 29.68 in1005.1 mb 0.00 in0.0 mm 0.00 in/hr0.0 mm/hr 0.00 in0.0 mm
09:12 AM 39.0°F3.9°C 36.3°F2.4°C 90% 2.0 mph WSW3.2 kmh WSW 2.0 mph3.2 kmh 29.69 in1005.4 mb 0.00 in0.0 mm 0.00 in/hr0.0 mm/hr 0.00 in0.0 mm
09:07 AM 38.8°F3.8°C 36.0°F2.2°C 89% 2.9 mph WSW4.7 kmh WSW 0.9 mph1.4 kmh 29.69 in1005.4 mb 0.00 in0.0 mm 0.00 in/hr0.0 mm/hr 0.00 in0.0 mm
09:02 AM 38.7°F3.7°C 36.0°F2.2°C 90% 2.9 mph WSW4.7 kmh WSW 6.9 mph11.1 kmh 29.69 in1005.4 mb 0.00 in0.0 mm 0.00 in/hr0.0 mm/hr 0.00 in0.0 mm
08:57 AM 38.5°F3.6°C 35.8°F2.1°C 90% 4.0 mph WSW6.4 kmh WSW -- 29.70 in1005.8 mb 0.00 in0.0 mm 0.00 in/hr0.0 mm/hr 0.00 in0.0 mm
08:52 AM 38.1°F3.4°C 35.8°F2.1°C 91% 4.9 mph WSW7.9 kmh WSW 4.9 mph7.9 kmh 29.70 in1005.8 mb 0.00 in0.0 mm 0.00 in/hr0.0 mm/hr 0.00 in0.0 mm
08:47 AM 37.8°F3.2°C 35.4°F1.9°C 91% 4.0 mph WSW6.4 kmh WSW 6.9 mph11.1 kmh 29.70 in1005.8 mb 0.00 in0.0 mm 0.00 in/hr0.0 mm/hr 0.00 in0.0 mm
08:42 AM 37.4°F3.0°C 35.1°F1.7°C 91% 4.0 mph W6.4 kmh W 6.0 mph9.7 kmh 29.70 in1005.8 mb 0.00 in0.0 mm 0.00 in/hr0.0 mm/hr 0.00 in0.0 mm
08:37 AM 37.0°F2.8°C 34.7°F1.5°C 91% 4.0 mph WSW6.4 kmh WSW 2.9 mph4.7 kmh 29.70 in1005.8 mb 0.00 in0.0 mm 0.00 in/hr0.0 mm/hr 0.00 in0.0 mm
08:32 AM 36.9°F2.7°C 34.7°F1.5°C 92% 4.0 mph WSW6.4 kmh WSW 0.9 mph1.4 kmh 29.70 in1005.8 mb 0.00 in0.0 mm 0.00 in/hr0.0 mm/hr 0.00 in0.0 mm
08:27 AM 36.9°F2.7°C 34.7°F1.5°C 92% 4.0 mph WSW6.4 kmh WSW 4.0 mph6.4 kmh 29.70 in1005.8 mb 0.00 in0.0 mm 0.00 in/hr0.0 mm/hr 0.00 in0.0 mm
08:22 AM 36.7°F2.6°C 34.5°F1.4°C 92% 4.0 mph W6.4 kmh W 6.0 mph9.7 kmh 29.70 in1005.8 mb 0.00 in0.0 mm 0.00 in/hr0.0 mm/hr 0.00 in0.0 mm
08:17 AM 36.5°F2.5°C 34.3°F1.3°C 92% 4.0 mph WSW6.4 kmh WSW 4.0 mph6.4 kmh 29.70 in1005.8 mb 0.00 in0.0 mm 0.00 in/hr0.0 mm/hr 0.00 in0.0 mm
08:12 AM 36.1°F2.3°C 34.3°F1.3°C 93% 4.0 mph WSW6.4 kmh WSW 6.9 mph11.1 kmh 29.70 in1005.8 mb 0.00 in0.0 mm 0.00 in/hr0.0 mm/hr 0.00 in0.0 mm
08:07 AM 35.8°F2.1°C 34.0°F1.1°C 93% 2.9 mph WSW4.7 kmh WSW 6.0 mph9.7 kmh 29.70 in1005.8 mb 0.00 in0.0 mm 0.00 in/hr0.0 mm/hr 0.00 in0.0 mm
07:57 AM 35.2°F1.8°C 33.1°F0.6°C 92% 2.9 mph WSW4.7 kmh WSW 2.9 mph4.7 kmh 29.71 in1006.1 mb 0.00 in0.0 mm 0.00 in/hr0.0 mm/hr 0.00 in0.0 mm
07:52 AM 35.1°F1.7°C 32.9°F0.5°C 92% 4.0 mph WSW6.4 kmh WSW 4.0 mph6.4 kmh 29.70 in1005.8 mb 0.00 in0.0 mm 0.00 in/hr0.0 mm/hr 0.00 in0.0 mm
07:47 AM 35.1°F1.7°C 32.9°F0.5°C 92% 4.0 mph WSW6.4 kmh WSW 2.0 mph3.2 kmh 29.70 in1005.8 mb 0.00 in0.0 mm 0.00 in/hr0.0 mm/hr 0.00 in0.0 mm
07:42 AM 35.1°F1.7°C 32.9°F0.5°C 92% 4.0 mph WSW6.4 kmh WSW 4.0 mph6.4 kmh 29.70 in1005.8 mb 0.00 in0.0 mm 0.00 in/hr0.0 mm/hr 0.00 in0.0 mm
07:37 AM 35.1°F1.7°C 32.9°F0.5°C 92% 4.0 mph WSW6.4 kmh WSW 4.9 mph7.9 kmh 29.70 in1005.8 mb 0.00 in0.0 mm 0.00 in/hr0.0 mm/hr 0.00 in0.0 mm
07:32 AM 34.9°F1.6°C 32.7°F0.4°C 92% 2.9 mph WSW4.7 kmh WSW 2.0 mph3.2 kmh 29.70 in1005.8 mb 0.00 in0.0 mm 0.00 in/hr0.0 mm/hr 0.00 in0.0 mm
07:27 AM 34.9°F1.6°C 32.7°F0.4°C 92% 2.9 mph WSW4.7 kmh WSW 4.0 mph6.4 kmh 29.70 in1005.8 mb 0.00 in0.0 mm 0.00 in/hr0.0 mm/hr 0.00 in0.0 mm
07:22 AM 34.9°F1.6°C 32.5°F0.3°C 91% 2.9 mph WSW4.7 kmh WSW 2.0 mph3.2 kmh 29.70 in1005.8 mb 0.00 in0.0 mm 0.00 in/hr0.0 mm/hr 0.00 in0.0 mm
07:17 AM 34.9°F1.6°C 32.7°F0.4°C 92% 2.9 mph SW4.7 kmh SW 2.9 mph4.7 kmh 29.70 in1005.8 mb 0.00 in0.0 mm 0.00 in/hr0.0 mm/hr 0.00 in0.0 mm
07:12 AM 35.1°F1.7°C 32.7°F0.4°C 91% 4.0 mph SW6.4 kmh SW 4.0 mph6.4 kmh 29.70 in1005.8 mb 0.00 in0.0 mm 0.00 in/hr0.0 mm/hr 0.00 in0.0 mm
07:07 AM 35.1°F1.7°C 32.7°F0.4°C 91% 4.0 mph SW6.4 kmh SW 4.9 mph7.9 kmh 29.71 in1006.1 mb 0.00 in0.0 mm 0.00 in/hr0.0 mm/hr 0.00 in0.0 mm
07:02 AM 35.2°F1.8°C 33.1°F0.6°C 92% 2.9 mph SW4.7 kmh SW 2.9 mph4.7 kmh 29.71 in1006.1 mb 0.00 in0.0 mm 0.00 in/hr0.0 mm/hr 0.00 in0.0 mm
06:57 AM 35.1°F1.7°C 32.9°F0.5°C 92% 2.9 mph SW4.7 kmh SW 2.9 mph4.7 kmh 29.71 in1006.1 mb 0.00 in0.0 mm 0.00 in/hr0.0 mm/hr 0.00 in0.0 mm
06:52 AM 35.1°F1.7°C 32.9°F0.5°C 92% 2.9 mph SW4.7 kmh SW 2.9 mph4.7 kmh 29.71 in1006.1 mb 0.00 in0.0 mm 0.00 in/hr0.0 mm/hr 0.00 in0.0 mm
06:47 AM 35.1°F1.7°C 32.9°F0.5°C 92% 2.9 mph SW4.7 kmh SW 2.9 mph4.7 kmh 29.71 in1006.1 mb 0.00 in0.0 mm 0.00 in/hr0.0 mm/hr 0.00 in0.0 mm
06:42 AM 34.9°F1.6°C 32.7°F0.4°C 92% 2.9 mph SW4.7 kmh SW 2.9 mph4.7 kmh 29.71 in1006.1 mb 0.00 in0.0 mm 0.00 in/hr0.0 mm/hr 0.00 in0.0 mm
06:37 AM 34.7°F1.5°C 32.5°F0.3°C 92% 2.9 mph SW4.7 kmh SW 4.0 mph6.4 kmh 29.71 in1006.1 mb 0.00 in0.0 mm 0.00 in/hr0.0 mm/hr 0.00 in0.0 mm
06:32 AM 34.5°F1.4°C 32.7°F0.4°C 93% 2.9 mph SW4.7 kmh SW 2.9 mph4.7 kmh 29.71 in1006.1 mb 0.00 in0.0 mm 0.00 in/hr0.0 mm/hr 0.00 in0.0 mm
06:27 AM 34.2°F1.2°C 32.4°F0.2°C 93% 2.0 mph SW3.2 kmh SW 4.0 mph6.4 kmh 29.71 in1006.1 mb 0.00 in0.0 mm 0.00 in/hr0.0 mm/hr 0.00 in0.0 mm
06:22 AM 34.0°F1.1°C 32.2°F0.1°C 93% 0.9 mph SW1.4 kmh SW 0.9 mph1.4 kmh 29.72 in1006.4 mb 0.00 in0.0 mm 0.00 in/hr0.0 mm/hr 0.00 in0.0 mm
06:17 AM 33.4°F0.8°C 31.3°F-0.4°C 92% 2.0 mph SW3.2 kmh SW -- 29.72 in1006.4 mb 0.00 in0.0 mm 0.00 in/hr0.0 mm/hr 0.00 in0.0 mm
06:12 AM 33.4°F0.8°C 31.3°F-0.4°C 92% 2.0 mph SW3.2 kmh SW 2.9 mph4.7 kmh 29.72 in1006.4 mb 0.00 in0.0 mm 0.00 in/hr0.0 mm/hr 0.00 in0.0 mm
06:07 AM 33.3°F0.7°C 30.9°F-0.6°C 91% 0.9 mph SW1.4 kmh SW 0.9 mph1.4 kmh 29.71 in1006.1 mb 0.00 in0.0 mm 0.00 in/hr0.0 mm/hr 0.00 in0.0 mm
06:02 AM 33.3°F0.7°C 30.9°F-0.6°C 91% 0.9 mph SW1.4 kmh SW 0.9 mph1.4 kmh 29.71 in1006.1 mb 0.00 in0.0 mm 0.00 in/hr0.0 mm/hr 0.00 in0.0 mm
05:57 AM 33.4°F0.8°C 31.1°F-0.5°C 91% 0.9 mph SW1.4 kmh SW 2.0 mph3.2 kmh 29.71 in1006.1 mb 0.00 in0.0 mm 0.00 in/hr0.0 mm/hr 0.00 in0.0 mm
05:52 AM 33.8°F1.0°C 31.5°F-0.3°C 91% 0.9 mph SW1.4 kmh SW 2.0 mph3.2 kmh 29.71 in1006.1 mb 0.00 in0.0 mm 0.00 in/hr0.0 mm/hr 0.00 in0.0 mm
05:47 AM 34.2°F1.2°C 31.8°F-0.1°C 91% 0.9 mph SW1.4 kmh SW -- 29.72 in1006.4 mb 0.00 in0.0 mm 0.00 in/hr0.0 mm/hr 0.00 in0.0 mm
05:42 AM 34.3°F1.3°C 32.2°F0.1°C 92% Calm Calm -- 29.72 in1006.4 mb 0.00 in0.0 mm 0.00 in/hr0.0 mm/hr 0.00 in0.0 mm
05:37 AM 34.5°F1.4°C 32.4°F0.2°C 92% Calm Calm 0.9 mph1.4 kmh 29.72 in1006.4 mb 0.00 in0.0 mm 0.00 in/hr0.0 mm/hr 0.00 in0.0 mm
05:32 AM 34.5°F1.4°C 32.4°F0.2°C 92% 0.9 mph SW1.4 kmh SW -- 29.72 in1006.4 mb 0.00 in0.0 mm 0.00 in/hr0.0 mm/hr 0.00 in0.0 mm
05:27 AM 34.7°F1.5°C 32.5°F0.3°C 92% 2.0 mph SW3.2 kmh SW 2.0 mph3.2 kmh 29.71 in1006.1 mb 0.00 in0.0 mm 0.00 in/hr0.0 mm/hr 0.00 in0.0 mm
05:22 AM 34.5°F1.4°C 32.7°F0.4°C 93% 2.9 mph SW4.7 kmh SW 0.9 mph1.4 kmh 29.71 in1006.1 mb 0.00 in0.0 mm 0.00 in/hr0.0 mm/hr 0.00 in0.0 mm
05:17 AM 34.3°F1.3°C 32.5°F0.3°C 93% 2.9 mph SW4.7 kmh SW 4.0 mph6.4 kmh 29.71 in1006.1 mb 0.00 in0.0 mm 0.00 in/hr0.0 mm/hr 0.00 in0.0 mm
05:12 AM 34.2°F1.2°C 32.4°F0.2°C 93% 4.0 mph WSW6.4 kmh WSW 2.9 mph4.7 kmh 29.71 in1006.1 mb 0.00 in0.0 mm 0.00 in/hr0.0 mm/hr 0.00 in0.0 mm
05:07 AM 34.0°F1.1°C 32.2°F0.1°C 93% 2.9 mph WSW4.7 kmh WSW 4.0 mph6.4 kmh 29.71 in1006.1 mb 0.00 in0.0 mm 0.00 in/hr0.0 mm/hr 0.00 in0.0 mm
05:02 AM 33.6°F0.9°C 31.8°F-0.1°C 93% 2.0 mph WSW3.2 kmh WSW 4.0 mph6.4 kmh 29.72 in1006.4 mb 0.00 in0.0 mm 0.00 in/hr0.0 mm/hr 0.00 in0.0 mm
04:57 AM 33.1°F0.6°C 31.5°F-0.3°C 94% 2.0 mph WSW3.2 kmh WSW 2.0 mph3.2 kmh 29.72 in1006.4 mb 0.00 in0.0 mm 0.00 in/hr0.0 mm/hr 0.00 in0.0 mm
04:52 AM 32.5°F0.3°C 30.7°F-0.7°C 93% 2.0 mph WSW3.2 kmh WSW 0.9 mph1.4 kmh 29.72 in1006.4 mb 0.00 in0.0 mm 0.00 in/hr0.0 mm/hr 0.00 in0.0 mm
04:47 AM 32.2°F0.1°C 29.8°F-1.2°C 91% 2.0 mph WSW3.2 kmh WSW 2.0 mph3.2 kmh 29.72 in1006.4 mb 0.00 in0.0 mm 0.00 in/hr0.0 mm/hr 0.00 in0.0 mm
04:42 AM 32.4°F0.2°C 30.0°F-1.1°C 91% 2.0 mph WSW3.2 kmh WSW 2.9 mph4.7 kmh 29.72 in1006.4 mb 0.00 in0.0 mm 0.00 in/hr0.0 mm/hr 0.00 in0.0 mm
04:37 AM 32.7°F0.4°C 30.4°F-0.9°C 91% 2.0 mph WSW3.2 kmh WSW 2.9 mph4.7 kmh 29.72 in1006.4 mb 0.00 in0.0 mm 0.00 in/hr0.0 mm/hr 0.00 in0.0 mm
04:32 AM 33.1°F0.6°C 30.4°F-0.9°C 90% 0.9 mph WSW1.4 kmh WSW 2.0 mph3.2 kmh 29.73 in1006.8 mb 0.00 in0.0 mm 0.00 in/hr0.0 mm/hr 0.00 in0.0 mm
04:27 AM 33.4°F0.8°C 31.1°F-0.5°C 91% Calm Calm 2.0 mph3.2 kmh 29.73 in1006.8 mb 0.00 in0.0 mm 0.00 in/hr0.0 mm/hr 0.00 in0.0 mm
04:22 AM 33.6°F0.9°C 31.3°F-0.4°C 91% Calm Calm 0.9 mph1.4 kmh 29.73 in1006.8 mb 0.00 in0.0 mm 0.00 in/hr0.0 mm/hr 0.00 in0.0 mm
04:17 AM 34.0°F1.1°C 31.6°F-0.2°C 91% Calm Calm -- 29.73 in1006.8 mb 0.00 in0.0 mm 0.00 in/hr0.0 mm/hr 0.00 in0.0 mm
04:12 AM 34.2°F1.2°C 31.8°F-0.1°C 91% Calm Calm -- 29.73 in1006.8 mb 0.00 in0.0 mm 0.00 in/hr0.0 mm/hr 0.00 in0.0 mm
04:07 AM 34.0°F1.1°C 31.3°F-0.4°C 90% Calm Calm -- 29.73 in1006.8 mb 0.00 in0.0 mm 0.00 in/hr0.0 mm/hr 0.00 in0.0 mm
04:02 AM 34.2°F1.2°C 31.5°F-0.3°C 90% Calm Calm -- 29.73 in1006.8 mb 0.00 in0.0 mm 0.00 in/hr0.0 mm/hr 0.00 in0.0 mm
03:57 AM 34.3°F1.3°C 31.6°F-0.2°C 90% Calm Calm -- 29.73 in1006.8 mb 0.00 in0.0 mm 0.00 in/hr0.0 mm/hr 0.00 in0.0 mm
03:52 AM 34.5°F1.4°C 31.8°F-0.1°C 90% Calm Calm -- 29.73 in1006.8 mb 0.00 in0.0 mm 0.00 in/hr0.0 mm/hr 0.00 in0.0 mm
03:47 AM 34.9°F1.6°C 32.2°F0.1°C 90% 0.9 mph WSW1.4 kmh WSW -- 29.73 in1006.8 mb 0.00 in0.0 mm 0.00 in/hr0.0 mm/hr 0.00 in0.0 mm
03:42 AM 35.1°F1.7°C 32.4°F0.2°C 90% 0.9 mph WSW1.4 kmh WSW 0.9 mph1.4 kmh 29.73 in1006.8 mb 0.00 in0.0 mm 0.00 in/hr0.0 mm/hr 0.00 in0.0 mm
03:37 AM 35.1°F1.7°C 32.4°F0.2°C 90% 0.9 mph WSW1.4 kmh WSW -- 29.73 in1006.8 mb 0.00 in0.0 mm 0.00 in/hr0.0 mm/hr 0.00 in0.0 mm
03:32 AM 35.4°F1.9°C 32.5°F0.3°C 89% 0.9 mph WSW1.4 kmh WSW 2.0 mph3.2 kmh 29.73 in1006.8 mb 0.00 in0.0 mm 0.00 in/hr0.0 mm/hr 0.00 in0.0 mm
03:27 AM 35.8°F2.1°C 33.1°F0.6°C 90% 0.9 mph WSW1.4 kmh WSW -- 29.73 in1006.8 mb 0.00 in0.0 mm 0.00 in/hr0.0 mm/hr 0.00 in0.0 mm
03:22 AM 36.0°F2.2°C 33.3°F0.7°C 90% 0.9 mph WSW1.4 kmh WSW 0.9 mph1.4 kmh 29.73 in1006.8 mb 0.00 in0.0 mm 0.00 in/hr0.0 mm/hr 0.00 in0.0 mm
03:17 AM 36.1°F2.3°C 33.3°F0.7°C 89% 0.9 mph WSW1.4 kmh WSW 2.9 mph4.7 kmh 29.73 in1006.8 mb 0.00 in0.0 mm 0.00 in/hr0.0 mm/hr 0.00 in0.0 mm
03:12 AM 36.1°F2.3°C 33.4°F0.8°C 90% 0.9 mph WSW1.4 kmh WSW 2.0 mph3.2 kmh 29.73 in1006.8 mb 0.00 in0.0 mm 0.00 in/hr0.0 mm/hr 0.00 in0.0 mm
03:07 AM 36.3°F2.4°C 33.6°F0.9°C 90% 0.9 mph WSW1.4 kmh WSW -- 29.73 in1006.8 mb 0.00 in0.0 mm 0.00 in/hr0.0 mm/hr 0.00 in0.0 mm
03:02 AM 36.3°F2.4°C 33.6°F0.9°C 90% 2.0 mph WSW3.2 kmh WSW 2.0 mph3.2 kmh 29.73 in1006.8 mb 0.00 in0.0 mm 0.00 in/hr0.0 mm/hr 0.00 in0.0 mm
02:57 AM 36.1°F2.3°C 33.4°F0.8°C 90% 2.0 mph WSW3.2 kmh WSW 0.9 mph1.4 kmh 29.74 in1007.1 mb 0.00 in0.0 mm 0.00 in/hr0.0 mm/hr 0.00 in0.0 mm
02:52 AM 36.0°F2.2°C 33.6°F0.9°C 91% 2.9 mph WSW4.7 kmh WSW 2.0 mph3.2 kmh 29.74 in1007.1 mb 0.00 in0.0 mm 0.00 in/hr0.0 mm/hr 0.00 in0.0 mm
02:47 AM 35.8°F2.1°C 33.4°F0.8°C 91% 2.0 mph WSW3.2 kmh WSW 2.9 mph4.7 kmh 29.74 in1007.1 mb 0.00 in0.0 mm 0.00 in/hr0.0 mm/hr 0.00 in0.0 mm
02:42 AM 35.4°F1.9°C 33.1°F0.6°C 91% 0.9 mph WSW1.4 kmh WSW 2.0 mph3.2 kmh 29.74 in1007.1 mb 0.00 in0.0 mm 0.00 in/hr0.0 mm/hr 0.00 in0.0 mm
02:37 AM 35.4°F1.9°C 33.1°F0.6°C 91% Calm Calm 0.9 mph1.4 kmh 29.74 in1007.1 mb 0.00 in0.0 mm 0.00 in/hr0.0 mm/hr 0.00 in0.0 mm
02:32 AM 35.2°F1.8°C 32.5°F0.3°C 90% Calm Calm -- 29.74 in1007.1 mb 0.00 in0.0 mm 0.00 in/hr0.0 mm/hr 0.00 in0.0 mm
02:27 AM 35.4°F1.9°C 32.5°F0.3°C 89% Calm Calm -- 29.74 in1007.1 mb 0.00 in0.0 mm 0.00 in/hr0.0 mm/hr 0.00 in0.0 mm
02:22 AM 35.6°F2.0°C 32.9°F0.5°C 90% Calm Calm -- 29.74 in1007.1 mb 0.00 in0.0 mm 0.00 in/hr0.0 mm/hr 0.00 in0.0 mm
02:17 AM 35.6°F2.0°C 32.9°F0.5°C 90% 0.9 mph WSW1.4 kmh WSW -- 29.74 in1007.1 mb 0.00 in0.0 mm 0.00 in/hr0.0 mm/hr 0.00 in0.0 mm
02:12 AM 35.4°F1.9°C 32.7°F0.4°C 90% 0.9 mph WSW1.4 kmh WSW 0.9 mph1.4 kmh 29.74 in1007.1 mb 0.00 in0.0 mm 0.00 in/hr0.0 mm/hr 0.00 in0.0 mm
02:07 AM 35.4°F1.9°C 32.5°F0.3°C 89% Calm Calm 2.0 mph3.2 kmh 29.75 in1007.5 mb 0.00 in0.0 mm 0.00 in/hr0.0 mm/hr 0.00 in0.0 mm
02:02 AM 35.4°F1.9°C 32.2°F0.1°C 88% Calm Calm -- 29.74 in1007.1 mb 0.00 in0.0 mm 0.00 in/hr0.0 mm/hr 0.00 in0.0 mm
01:57 AM 35.6°F2.0°C 32.4°F0.2°C 88% Calm Calm -- 29.75 in1007.5 mb 0.00 in0.0 mm 0.00 in/hr0.0 mm/hr 0.00 in0.0 mm
01:52 AM 35.8°F2.1°C 32.5°F0.3°C 88% Calm Calm -- 29.75 in1007.5 mb 0.00 in0.0 mm 0.00 in/hr0.0 mm/hr 0.00 in0.0 mm
01:47 AM 35.8°F2.1°C 32.5°F0.3°C 88% Calm Calm -- 29.75 in1007.5 mb 0.00 in0.0 mm 0.00 in/hr0.0 mm/hr 0.00 in0.0 mm
01:42 AM 36.0°F2.2°C 32.7°F0.4°C 88% Calm Calm -- 29.75 in1007.5 mb 0.00 in0.0 mm 0.00 in/hr0.0 mm/hr 0.00 in0.0 mm
01:37 AM 36.0°F2.2°C 32.7°F0.4°C 88% Calm Calm -- 29.75 in1007.5 mb 0.00 in0.0 mm 0.00 in/hr0.0 mm/hr 0.00 in0.0 mm
01:32 AM 36.1°F2.3°C 32.9°F0.5°C 88% 0.9 mph WSW1.4 kmh WSW -- 29.75 in1007.5 mb 0.00 in0.0 mm 0.00 in/hr0.0 mm/hr 0.00 in0.0 mm
01:27 AM 36.1°F2.3°C 32.7°F0.4°C 87% 0.9 mph WSW1.4 kmh WSW 0.9 mph1.4 kmh 29.76 in1007.8 mb 0.00 in0.0 mm 0.00 in/hr0.0 mm/hr 0.00 in0.0 mm
01:22 AM 36.1°F2.3°C 32.7°F0.4°C 87% 2.0 mph WSW3.2 kmh WSW 0.9 mph1.4 kmh 29.76 in1007.8 mb 0.00 in0.0 mm 0.00 in/hr0.0 mm/hr 0.00 in0.0 mm
01:17 AM 36.3°F2.4°C 32.9°F0.5°C 87% 0.9 mph WSW1.4 kmh WSW 2.0 mph3.2 kmh 29.76 in1007.8 mb 0.00 in0.0 mm 0.00 in/hr0.0 mm/hr 0.00 in0.0 mm
01:12 AM 36.3°F2.4°C 32.5°F0.3°C 86% Calm Calm 0.9 mph1.4 kmh 29.76 in1007.8 mb 0.00 in0.0 mm 0.00 in/hr0.0 mm/hr 0.00 in0.0 mm
01:07 AM 36.7°F2.6°C 32.9°F0.5°C 86% Calm Calm -- 29.76 in1007.8 mb 0.00 in0.0 mm 0.00 in/hr0.0 mm/hr 0.00 in0.0 mm
01:02 AM 36.9°F2.7°C 33.1°F0.6°C 86% Calm Calm -- 29.77 in1008.1 mb 0.00 in0.0 mm 0.00 in/hr0.0 mm/hr 0.00 in0.0 mm
12:57 AM 36.9°F2.7°C 33.1°F0.6°C 86% 0.9 mph WSW1.4 kmh WSW -- 29.77 in1008.1 mb 0.00 in0.0 mm 0.00 in/hr0.0 mm/hr 0.00 in0.0 mm
12:52 AM 37.0°F2.8°C 32.9°F0.5°C 85% 0.9 mph WSW1.4 kmh WSW -- 29.76 in1007.8 mb 0.00 in0.0 mm 0.00 in/hr0.0 mm/hr 0.00 in0.0 mm
12:47 AM 37.2°F2.9°C 33.1°F0.6°C 85% 0.9 mph WSW1.4 kmh WSW 0.9 mph1.4 kmh 29.77 in1008.1 mb 0.00 in0.0 mm 0.00 in/hr0.0 mm/hr 0.00 in0.0 mm
12:42 AM 37.4°F3.0°C 33.1°F0.6°C 84% 0.9 mph WSW1.4 kmh WSW 2.0 mph3.2 kmh 29.77 in1008.1 mb 0.00 in0.0 mm 0.00 in/hr0.0 mm/hr 0.00 in0.0 mm
12:37 AM 37.6°F3.1°C 33.3°F0.7°C 84% Calm Calm -- 29.77 in1008.1 mb 0.00 in0.0 mm 0.00 in/hr0.0 mm/hr 0.00 in0.0 mm
12:32 AM 37.6°F3.1°C 33.3°F0.7°C 84% Calm Calm 0.9 mph1.4 kmh 29.77 in1008.1 mb 0.00 in0.0 mm 0.00 in/hr0.0 mm/hr 0.00 in0.0 mm
12:27 AM 37.6°F3.1°C 33.3°F0.7°C 84% 0.9 mph WSW1.4 kmh WSW -- 29.77 in1008.1 mb 0.00 in0.0 mm 0.00 in/hr0.0 mm/hr 0.00 in0.0 mm
12:22 AM 37.8°F3.2°C 33.4°F0.8°C 84% Calm Calm 2.0 mph3.2 kmh 29.77 in1008.1 mb 0.00 in0.0 mm 0.00 in/hr0.0 mm/hr 0.00 in0.0 mm
12:17 AM 37.9°F3.3°C 33.3°F0.7°C 83% Calm Calm -- 29.77 in1008.1 mb 0.00 in0.0 mm 0.00 in/hr0.0 mm/hr 0.00 in0.0 mm
12:12 AM 38.1°F3.4°C 33.4°F0.8°C 83% 0.9 mph WSW1.4 kmh WSW -- 29.77 in1008.1 mb 0.00 in0.0 mm 0.00 in/hr0.0 mm/hr 0.00 in0.0 mm
12:07 AM 38.3°F3.5°C 33.6°F0.9°C 83% 0.9 mph WSW1.4 kmh WSW 0.9 mph1.4 kmh 29.77 in1008.1 mb 0.00 in0.0 mm 0.00 in/hr0.0 mm/hr 0.00 in0.0 mm
12:02 AM 38.5°F3.6°C 34.2°F1.2°C 84% 2.0 mph WSW3.2 kmh WSW 2.0 mph3.2 kmh 29.78 in1008.5 mb 0.00 in0.0 mm 0.00 in/hr0.0 mm/hr 0.04 in1.0 mm